sensor_id;sensor_type;location;lat;lon;timestamp;temperature;humidity
11894;DHT22;6006;49.696;8.662;2024-03-23T00:55:32;7.10;99.90
11894;DHT22;6006;49.696;8.662;2024-03-23T00:57:57;7.00;99.90
11894;DHT22;6006;49.696;8.662;2024-03-23T01:00:24;7.10;99.90
11894;DHT22;6006;49.696;8.662;2024-03-23T01:02:50;7.10;99.90
11894;DHT22;6006;49.696;8.662;2024-03-23T01:05:17;7.00;99.90
11894;DHT22;6006;49.696;8.662;2024-03-23T01:07:43;7.10;99.90
11894;DHT22;6006;49.696;8.662;2024-03-23T01:10:11;7.20;99.90
11894;DHT22;6006;49.696;8.662;2024-03-23T01:12:37;7.20;99.90
11894;DHT22;6006;49.696;8.662;2024-03-23T01:15:05;7.30;99.90
11894;DHT22;6006;49.696;8.662;2024-03-23T01:17:31;7.40;99.90
11894;DHT22;6006;49.696;8.662;2024-03-23T01:19:58;7.50;99.90
11894;DHT22;6006;49.696;8.662;2024-03-23T01:22:24;7.60;99.90
11894;DHT22;6006;49.696;8.662;2024-03-23T01:24:50;7.60;99.90
11894;DHT22;6006;49.696;8.662;2024-03-23T01:27:18;7.70;99.90
11894;DHT22;6006;49.696;8.662;2024-03-23T01:29:44;7.70;99.90
11894;DHT22;6006;49.696;8.662;2024-03-23T01:32:10;7.90;99.90
11894;DHT22;6006;49.696;8.662;2024-03-23T01:34:37;8.10;99.90
11894;DHT22;6006;49.696;8.662;2024-03-23T01:37:03;8.70;99.90
11894;DHT22;6006;49.696;8.662;2024-03-23T01:39:30;9.00;99.90
11894;DHT22;6006;49.696;8.662;2024-03-23T01:41:56;9.40;22.10
11894;DHT22;6006;49.696;8.662;2024-03-23T01:44:24;9.60;1.00
11894;DHT22;6006;49.696;8.662;2024-03-23T01:46:50;9.90;1.00
11894;DHT22;6006;49.696;8.662;2024-03-23T01:49:17;10.30;99.90
11894;DHT22;6006;49.696;8.662;2024-03-23T01:51:44;10.80;1.00
11894;DHT22;6006;49.696;8.662;2024-03-23T01:54:11;11.20;1.00
11894;DHT22;6006;49.696;8.662;2024-03-23T01:56:38;11.40;2.60
11894;DHT22;6006;49.696;8.662;2024-03-23T01:59:05;11.50;1.00
11894;DHT22;6006;49.696;8.662;2024-03-23T02:01:34;11.50;1.00
11894;DHT22;6006;49.696;8.662;2024-03-23T02:04:01;11.50;1.00
11894;DHT22;6006;49.696;8.662;2024-03-23T02:06:27;11.70;97.60
11894;DHT22;6006;49.696;8.662;2024-03-23T02:08:54;11.70;1.00
11894;DHT22;6006;49.696;8.662;2024-03-23T02:11:20;11.80;1.00
11894;DHT22;6006;49.696;8.662;2024-03-23T02:13:47;11.80;1.00
11894;DHT22;6006;49.696;8.662;2024-03-23T02:16:13;11.70;1.00
11894;DHT22;6006;49.696;8.662;2024-03-23T02:18:41;11.60;1.00
11894;DHT22;6006;49.696;8.662;2024-03-23T02:21:07;11.50;1.00
11894;DHT22;6006;49.696;8.662;2024-03-23T02:23:35;11.40;1.00
11894;DHT22;6006;49.696;8.662;2024-03-23T02:26:02;11.30;1.00
11894;DHT22;6006;49.696;8.662;2024-03-23T02:28:28;11.20;1.00
11894;DHT22;6006;49.696;8.662;2024-03-23T02:30:54;11.20;1.00
11894;DHT22;6006;49.696;8.662;2024-03-23T02:33:21;11.20;1.00
11894;DHT22;6006;49.696;8.662;2024-03-23T02:35:47;11.20;1.00
11894;DHT22;6006;49.696;8.662;2024-03-23T02:38:14;11.20;1.00
11894;DHT22;6006;49.696;8.662;2024-03-23T02:40:41;11.20;1.00
11894;DHT22;6006;49.696;8.662;2024-03-23T02:43:08;11.20;1.00
11894;DHT22;6006;49.696;8.662;2024-03-23T02:45:34;11.10;1.00
11894;DHT22;6006;49.696;8.662;2024-03-23T02:48:01;11.00;1.00
11894;DHT22;6006;49.696;8.662;2024-03-23T02:50:27;11.00;1.00
11894;DHT22;6006;49.696;8.662;2024-03-23T02:52:54;11.00;1.00
11894;DHT22;6006;49.696;8.662;2024-03-23T02:55:19;11.20;1.00
11894;DHT22;6006;49.696;8.662;2024-03-23T02:57:48;11.20;1.00
11894;DHT22;6006;49.696;8.662;2024-03-23T03:00:14;11.30;1.00
11894;DHT22;6006;49.696;8.662;2024-03-23T03:02:40;11.30;1.00
11894;DHT22;6006;49.696;8.662;2024-03-23T03:05:06;11.30;1.00
11894;DHT22;6006;49.696;8.662;2024-03-23T03:07:34;11.20;1.00
11894;DHT22;6006;49.696;8.662;2024-03-23T03:10:00;11.40;1.00
11894;DHT22;6006;49.696;8.662;2024-03-23T03:12:27;11.30;1.00
11894;DHT22;6006;49.696;8.662;2024-03-23T03:14:54;11.30;1.00
11894;DHT22;6006;49.696;8.662;2024-03-23T03:17:21;11.30;1.00
11894;DHT22;6006;49.696;8.662;2024-03-23T03:19:49;11.20;1.00
11894;DHT22;6006;49.696;8.662;2024-03-23T03:22:21;11.20;1.00
11894;DHT22;6006;49.696;8.662;2024-03-23T03:24:47;11.20;1.00
11894;DHT22;6006;49.696;8.662;2024-03-23T03:27:13;11.20;1.00
11894;DHT22;6006;49.696;8.662;2024-03-23T03:29:40;11.10;1.00
11894;DHT22;6006;49.696;8.662;2024-03-23T03:32:08;11.00;1.00
11894;DHT22;6006;49.696;8.662;2024-03-23T03:34:34;11.00;1.00
11894;DHT22;6006;49.696;8.662;2024-03-23T03:37:01;11.10;1.00
11894;DHT22;6006;49.696;8.662;2024-03-23T03:39:27;11.10;1.00
11894;DHT22;6006;49.696;8.662;2024-03-23T03:41:54;11.10;1.00
11894;DHT22;6006;49.696;8.662;2024-03-23T03:44:20;11.00;1.00
11894;DHT22;6006;49.696;8.662;2024-03-23T03:46:47;11.00;1.00
11894;DHT22;6006;49.696;8.662;2024-03-23T03:49:14;11.10;1.00
11894;DHT22;6006;49.696;8.662;2024-03-23T03:51:41;11.10;1.00
11894;DHT22;6006;49.696;8.662;2024-03-23T03:54:07;11.10;1.00
11894;DHT22;6006;49.696;8.662;2024-03-23T03:56:33;11.10;1.00
11894;DHT22;6006;49.696;8.662;2024-03-23T03:58:59;11.10;1.00
11894;DHT22;6006;49.696;8.662;2024-03-23T04:01:26;11.20;1.00
11894;DHT22;6006;49.696;8.662;2024-03-23T04:03:52;11.10;1.00
11894;DHT22;6006;49.696;8.662;2024-03-23T04:06:20;11.00;1.00
11894;DHT22;6006;49.696;8.662;2024-03-23T04:08:46;11.00;1.00
11894;DHT22;6006;49.696;8.662;2024-03-23T04:11:13;10.90;1.00
11894;DHT22;6006;49.696;8.662;2024-03-23T04:13:39;10.90;1.00
11894;DHT22;6006;49.696;8.662;2024-03-23T04:16:07;11.00;1.00
11894;DHT22;6006;49.696;8.662;2024-03-23T04:18:34;11.10;1.00
11894;DHT22;6006;49.696;8.662;2024-03-23T04:21:01;11.20;1.00
11894;DHT22;6006;49.696;8.662;2024-03-23T04:23:28;11.20;1.00
11894;DHT22;6006;49.696;8.662;2024-03-23T04:25:55;11.10;1.00
11894;DHT22;6006;49.696;8.662;2024-03-23T04:28:21;11.20;1.00
11894;DHT22;6006;49.696;8.662;2024-03-23T04:30:48;11.20;1.00
11894;DHT22;6006;49.696;8.662;2024-03-23T04:33:14;11.20;1.00
11894;DHT22;6006;49.696;8.662;2024-03-23T04:35:41;11.20;1.00
11894;DHT22;6006;49.696;8.662;2024-03-23T04:38:07;11.30;1.00
11894;DHT22;6006;49.696;8.662;2024-03-23T04:40:35;11.30;1.00
11894;DHT22;6006;49.696;8.662;2024-03-23T04:43:02;11.40;1.00
11894;DHT22;6006;49.696;8.662;2024-03-23T04:45:30;11.30;1.00
11894;DHT22;6006;49.696;8.662;2024-03-23T04:47:57;11.20;1.00
11894;DHT22;6006;49.696;8.662;2024-03-23T04:50:23;11.20;1.00
11894;DHT22;6006;49.696;8.662;2024-03-23T04:52:50;11.20;1.00
11894;DHT22;6006;49.696;8.662;2024-03-23T04:55:16;11.10;1.00
11894;DHT22;6006;49.696;8.662;2024-03-23T04:57:45;11.00;1.00
11894;DHT22;6006;49.696;8.662;2024-03-23T05:00:12;10.90;1.00
11894;DHT22;6006;49.696;8.662;2024-03-23T05:02:44;10.80;1.00
11894;DHT22;6006;49.696;8.662;2024-03-23T05:05:11;10.70;1.00
11894;DHT22;6006;49.696;8.662;2024-03-23T05:07:38;10.00;1.00
11894;DHT22;6006;49.696;8.662;2024-03-23T05:10:04;9.70;1.00
11894;DHT22;6006;49.696;8.662;2024-03-23T05:12:34;9.20;1.00
11894;DHT22;6006;49.696;8.662;2024-03-23T05:15:02;8.90;99.90
11894;DHT22;6006;49.696;8.662;2024-03-23T05:17:28;8.70;1.00
11894;DHT22;6006;49.696;8.662;2024-03-23T05:19:55;8.50;1.00
11894;DHT22;6006;49.696;8.662;2024-03-23T05:22:21;8.40;1.00
11894;DHT22;6006;49.696;8.662;2024-03-23T05:24:48;8.40;99.90
11894;DHT22;6006;49.696;8.662;2024-03-23T05:27:15;8.30;99.90
11894;DHT22;6006;49.696;8.662;2024-03-23T05:29:42;8.20;99.90
11894;DHT22;6006;49.696;8.662;2024-03-23T05:32:09;8.00;79.60
11894;DHT22;6006;49.696;8.662;2024-03-23T05:34:36;7.90;1.00
11894;DHT22;6006;49.696;8.662;2024-03-23T05:37:02;7.80;99.90
11894;DHT22;6006;49.696;8.662;2024-03-23T05:39:29;7.80;1.00
11894;DHT22;6006;49.696;8.662;2024-03-23T05:41:55;7.80;99.90
11894;DHT22;6006;49.696;8.662;2024-03-23T05:44:22;7.70;67.20
11894;DHT22;6006;49.696;8.662;2024-03-23T05:46:47;7.60;1.00
11894;DHT22;6006;49.696;8.662;2024-03-23T05:49:16;7.60;99.90
11894;DHT22;6006;49.696;8.662;2024-03-23T05:51:43;7.60;1.00
11894;DHT22;6006;49.696;8.662;2024-03-23T05:54:09;7.60;42.10
11894;DHT22;6006;49.696;8.662;2024-03-23T05:56:36;7.50;1.00
11894;DHT22;6006;49.696;8.662;2024-03-23T05:59:02;7.50;1.00
11894;DHT22;6006;49.696;8.662;2024-03-23T06:01:29;7.50;99.90
11894;DHT22;6006;49.696;8.662;2024-03-23T06:03:58;7.40;1.00
11894;DHT22;6006;49.696;8.662;2024-03-23T06:06:28;7.40;99.90
11894;DHT22;6006;49.696;8.662;2024-03-23T06:08:55;7.30;49.50
11894;DHT22;6006;49.696;8.662;2024-03-23T06:11:22;7.30;99.90
11894;DHT22;6006;49.696;8.662;2024-03-23T06:13:48;7.30;99.90
11894;DHT22;6006;49.696;8.662;2024-03-23T06:16:16;7.30;99.90
11894;DHT22;6006;49.696;8.662;2024-03-23T06:18:41;7.30;1.00
11894;DHT22;6006;49.696;8.662;2024-03-23T06:21:13;7.30;1.00
11894;DHT22;6006;49.696;8.662;2024-03-23T06:23:41;7.30;1.00
11894;DHT22;6006;49.696;8.662;2024-03-23T06:26:08;7.30;1.00
11894;DHT22;6006;49.696;8.662;2024-03-23T06:28:34;7.30;99.90
11894;DHT22;6006;49.696;8.662;2024-03-23T06:31:01;7.30;99.90
11894;DHT22;6006;49.696;8.662;2024-03-23T06:33:28;7.30;99.90
11894;DHT22;6006;49.696;8.662;2024-03-23T06:35:55;7.30;99.90
11894;DHT22;6006;49.696;8.662;2024-03-23T06:38:21;7.40;99.90
11894;DHT22;6006;49.696;8.662;2024-03-23T06:40:49;7.30;1.00
11894;DHT22;6006;49.696;8.662;2024-03-23T06:43:16;7.40;1.60
11894;DHT22;6006;49.696;8.662;2024-03-23T06:45:43;7.30;1.00
11894;DHT22;6006;49.696;8.662;2024-03-23T06:48:09;7.30;1.00
11894;DHT22;6006;49.696;8.662;2024-03-23T06:50:36;7.30;1.00
11894;DHT22;6006;49.696;8.662;2024-03-23T06:53:02;7.20;1.00
11894;DHT22;6006;49.696;8.662;2024-03-23T06:55:31;7.20;1.00
11894;DHT22;6006;49.696;8.662;2024-03-23T06:57:58;7.10;1.00
11894;DHT22;6006;49.696;8.662;2024-03-23T07:00:25;7.10;1.00
11894;DHT22;6006;49.696;8.662;2024-03-23T07:02:51;7.10;1.00
11894;DHT22;6006;49.696;8.662;2024-03-23T07:05:18;7.20;1.00
11894;DHT22;6006;49.696;8.662;2024-03-23T07:07:44;7.30;1.00
11894;DHT22;6006;49.696;8.662;2024-03-23T07:10:11;7.40;1.00
11894;DHT22;6006;49.696;8.662;2024-03-23T07:12:37;7.40;1.00
11894;DHT22;6006;49.696;8.662;2024-03-23T07:15:06;7.40;1.00
11894;DHT22;6006;49.696;8.662;2024-03-23T07:17:33;7.50;1.00
11894;DHT22;6006;49.696;8.662;2024-03-23T07:20:00;7.60;1.00
11894;DHT22;6006;49.696;8.662;2024-03-23T07:22:29;7.50;1.00
11894;DHT22;6006;49.696;8.662;2024-03-23T07:24:56;7.40;1.00
11894;DHT22;6006;49.696;8.662;2024-03-23T07:27:22;7.50;1.00
11894;DHT22;6006;49.696;8.662;2024-03-23T07:29:49;7.30;1.00
11894;DHT22;6006;49.696;8.662;2024-03-23T07:32:16;7.00;99.90
11894;DHT22;6006;49.696;8.662;2024-03-23T07:34:43;6.90;1.00
11894;DHT22;6006;49.696;8.662;2024-03-23T07:37:10;6.90;1.00
11894;DHT22;6006;49.696;8.662;2024-03-23T07:39:36;6.90;1.00
11894;DHT22;6006;49.696;8.662;2024-03-23T07:42:03;6.80;1.00
11894;DHT22;6006;49.696;8.662;2024-03-23T07:44:30;6.80;1.00
11894;DHT22;6006;49.696;8.662;2024-03-23T07:46:56;6.80;1.00
11894;DHT22;6006;49.696;8.662;2024-03-23T07:49:25;6.70;1.00
11894;DHT22;6006;49.696;8.662;2024-03-23T07:51:51;6.70;1.00
11894;DHT22;6006;49.696;8.662;2024-03-23T07:54:17;6.70;1.00
11894;DHT22;6006;49.696;8.662;2024-03-23T07:56:43;6.70;1.00
11894;DHT22;6006;49.696;8.662;2024-03-23T07:59:10;6.70;1.00
11894;DHT22;6006;49.696;8.662;2024-03-23T08:01:36;6.70;1.00
11894;DHT22;6006;49.696;8.662;2024-03-23T08:04:03;6.80;1.00
11894;DHT22;6006;49.696;8.662;2024-03-23T08:06:31;6.70;1.00
11894;DHT22;6006;49.696;8.662;2024-03-23T08:08:58;7.00;1.00
11894;DHT22;6006;49.696;8.662;2024-03-23T08:11:26;7.10;99.90
11894;DHT22;6006;49.696;8.662;2024-03-23T08:13:54;7.10;99.90
11894;DHT22;6006;49.696;8.662;2024-03-23T08:16:20;7.30;99.90
11894;DHT22;6006;49.696;8.662;2024-03-23T08:18:48;7.30;99.90
11894;DHT22;6006;49.696;8.662;2024-03-23T08:21:14;7.30;99.90
11894;DHT22;6006;49.696;8.662;2024-03-23T08:23:42;7.40;99.90
11894;DHT22;6006;49.696;8.662;2024-03-23T08:26:09;7.40;99.90
11894;DHT22;6006;49.696;8.662;2024-03-23T08:28:37;7.40;99.90
11894;DHT22;6006;49.696;8.662;2024-03-23T08:31:05;7.10;99.90
11894;DHT22;6006;49.696;8.662;2024-03-23T08:33:32;7.20;99.90
11894;DHT22;6006;49.696;8.662;2024-03-23T08:35:59;7.30;99.90
11894;DHT22;6006;49.696;8.662;2024-03-23T08:38:27;7.60;99.90
11894;DHT22;6006;49.696;8.662;2024-03-23T08:40:58;7.90;99.90
11894;DHT22;6006;49.696;8.662;2024-03-23T08:43:25;8.20;99.90
11894;DHT22;6006;49.696;8.662;2024-03-23T08:45:51;8.10;99.90
11894;DHT22;6006;49.696;8.662;2024-03-23T08:48:19;8.30;99.90
11894;DHT22;6006;49.696;8.662;2024-03-23T08:50:46;8.60;99.90
11894;DHT22;6006;49.696;8.662;2024-03-23T08:53:13;8.70;99.90
11894;DHT22;6006;49.696;8.662;2024-03-23T08:55:39;8.90;99.90
11894;DHT22;6006;49.696;8.662;2024-03-23T08:58:07;9.70;99.90
11894;DHT22;6006;49.696;8.662;2024-03-23T09:00:34;9.70;99.90
11894;DHT22;6006;49.696;8.662;2024-03-23T09:03:01;9.50;99.90
11894;DHT22;6006;49.696;8.662;2024-03-23T09:05:28;9.70;99.90
11894;DHT22;6006;49.696;8.662;2024-03-23T09:08:00;9.20;99.90
11894;DHT22;6006;49.696;8.662;2024-03-23T09:10:26;9.20;99.90
11894;DHT22;6006;49.696;8.662;2024-03-23T09:12:53;9.40;99.90
11894;DHT22;6006;49.696;8.662;2024-03-23T09:15:20;9.40;99.90
11894;DHT22;6006;49.696;8.662;2024-03-23T09:17:47;9.60;99.90
11894;DHT22;6006;49.696;8.662;2024-03-23T09:20:13;8.90;99.90
11894;DHT22;6006;49.696;8.662;2024-03-23T09:22:40;9.30;99.90
11894;DHT22;6006;49.696;8.662;2024-03-23T09:25:07;9.60;99.90
11894;DHT22;6006;49.696;8.662;2024-03-23T09:27:34;9.80;99.90
11894;DHT22;6006;49.696;8.662;2024-03-23T09:30:00;10.20;99.90
11894;DHT22;6006;49.696;8.662;2024-03-23T09:32:28;9.80;99.90
11894;DHT22;6006;49.696;8.662;2024-03-23T09:34:54;9.80;99.90
11894;DHT22;6006;49.696;8.662;2024-03-23T09:37:21;9.80;99.90
11894;DHT22;6006;49.696;8.662;2024-03-23T09:39:46;10.20;99.90
11894;DHT22;6006;49.696;8.662;2024-03-23T09:42:13;9.50;99.90
11894;DHT22;6006;49.696;8.662;2024-03-23T09:44:40;9.50;99.90
11894;DHT22;6006;49.696;8.662;2024-03-23T09:47:08;9.60;99.90
11894;DHT22;6006;49.696;8.662;2024-03-23T09:49:35;9.30;99.90
11894;DHT22;6006;49.696;8.662;2024-03-23T09:52:02;9.20;99.90
11894;DHT22;6006;49.696;8.662;2024-03-23T09:54:28;8.80;99.90
11894;DHT22;6006;49.696;8.662;2024-03-23T09:56:55;8.60;99.90
11894;DHT22;6006;49.696;8.662;2024-03-23T09:59:21;8.80;99.90
11894;DHT22;6006;49.696;8.662;2024-03-23T10:01:49;9.00;99.90
11894;DHT22;6006;49.696;8.662;2024-03-23T10:04:37;9.20;99.90
11894;DHT22;6006;49.696;8.662;2024-03-23T10:07:14;9.20;99.90
11894;DHT22;6006;49.696;8.662;2024-03-23T10:09:40;9.30;99.90
11894;DHT22;6006;49.696;8.662;2024-03-23T10:12:09;9.40;99.90
11894;DHT22;6006;49.696;8.662;2024-03-23T10:14:35;9.50;99.90
11894;DHT22;6006;49.696;8.662;2024-03-23T10:17:17;9.70;99.90
11894;DHT22;6006;49.696;8.662;2024-03-23T10:19:45;9.60;99.90
11894;DHT22;6006;49.696;8.662;2024-03-23T10:22:14;9.40;99.90
11894;DHT22;6006;49.696;8.662;2024-03-23T10:24:40;9.40;99.90
11894;DHT22;6006;49.696;8.662;2024-03-23T10:27:07;9.40;99.90
11894;DHT22;6006;49.696;8.662;2024-03-23T10:29:33;9.40;99.90
11894;DHT22;6006;49.696;8.662;2024-03-23T10:32:10;9.50;99.90
11894;DHT22;6006;49.696;8.662;2024-03-23T10:34:36;9.80;99.90
11894;DHT22;6006;49.696;8.662;2024-03-23T10:37:05;9.70;99.90
11894;DHT22;6006;49.696;8.662;2024-03-23T10:39:33;9.90;99.90
11894;DHT22;6006;49.696;8.662;2024-03-23T10:42:03;9.80;99.90
11894;DHT22;6006;49.696;8.662;2024-03-23T10:44:29;10.00;99.90
11894;DHT22;6006;49.696;8.662;2024-03-23T10:46:57;10.00;99.90
11894;DHT22;6006;49.696;8.662;2024-03-23T10:49:28;10.00;99.90
11894;DHT22;6006;49.696;8.662;2024-03-23T10:51:57;10.20;99.90
11894;DHT22;6006;49.696;8.662;2024-03-23T10:54:26;10.40;99.90
11894;DHT22;6006;49.696;8.662;2024-03-23T10:56:56;10.40;99.90
11894;DHT22;6006;49.696;8.662;2024-03-23T10:59:23;10.30;99.90
11894;DHT22;6006;49.696;8.662;2024-03-23T11:01:55;10.20;99.90
11894;DHT22;6006;49.696;8.662;2024-03-23T11:04:31;10.30;99.90
11894;DHT22;6006;49.696;8.662;2024-03-23T11:06:58;10.20;99.90
11894;DHT22;6006;49.696;8.662;2024-03-23T11:09:41;10.00;99.90
11894;DHT22;6006;49.696;8.662;2024-03-23T11:12:25;9.90;99.90
11894;DHT22;6006;49.696;8.662;2024-03-23T11:14:52;9.70;99.90
11894;DHT22;6006;49.696;8.662;2024-03-23T11:17:20;8.70;99.90
11894;DHT22;6006;49.696;8.662;2024-03-23T11:19:53;7.80;99.90
11894;DHT22;6006;49.696;8.662;2024-03-23T11:22:50;7.60;99.90
11894;DHT22;6006;49.696;8.662;2024-03-23T11:25:20;7.70;99.90
11894;DHT22;6006;49.696;8.662;2024-03-23T11:27:48;8.00;99.90
11894;DHT22;6006;49.696;8.662;2024-03-23T11:30:18;7.60;99.90
11894;DHT22;6006;49.696;8.662;2024-03-23T11:32:48;7.60;99.90
11894;DHT22;6006;49.696;8.662;2024-03-23T11:35:27;7.50;99.90
11894;DHT22;6006;49.696;8.662;2024-03-23T11:38:07;7.30;99.90
11894;DHT22;6006;49.696;8.662;2024-03-23T11:40:36;8.30;99.90
11894;DHT22;6006;49.696;8.662;2024-03-23T11:43:04;8.80;99.90
11894;DHT22;6006;49.696;8.662;2024-03-23T11:45:34;9.30;99.90
11894;DHT22;6006;49.696;8.662;2024-03-23T11:48:06;8.50;99.90
11894;DHT22;6006;49.696;8.662;2024-03-23T11:50:32;8.00;99.90
11894;DHT22;6006;49.696;8.662;2024-03-23T11:53:16;8.40;99.90
11894;DHT22;6006;49.696;8.662;2024-03-23T11:55:47;8.30;99.90
11894;DHT22;6006;49.696;8.662;2024-03-23T11:58:15;8.60;99.90
11894;DHT22;6006;49.696;8.662;2024-03-23T12:00:42;9.20;99.90
11894;DHT22;6006;49.696;8.662;2024-03-23T12:03:09;9.50;99.90
11894;DHT22;6006;49.696;8.662;2024-03-23T12:05:36;9.30;99.90
11894;DHT22;6006;49.696;8.662;2024-03-23T12:08:22;9.50;99.90
11894;DHT22;6006;49.696;8.662;2024-03-23T12:10:51;9.60;99.90
11894;DHT22;6006;49.696;8.662;2024-03-23T12:13:19;9.40;99.90
11894;DHT22;6006;49.696;8.662;2024-03-23T12:15:46;9.20;99.90
11894;DHT22;6006;49.696;8.662;2024-03-23T12:18:13;9.60;99.90
11894;DHT22;6006;49.696;8.662;2024-03-23T12:20:39;9.90;99.90
11894;DHT22;6006;49.696;8.662;2024-03-23T12:23:10;9.90;99.90
11894;DHT22;6006;49.696;8.662;2024-03-23T12:25:37;10.00;99.90
11894;DHT22;6006;49.696;8.662;2024-03-23T12:28:06;9.50;99.90
11894;DHT22;6006;49.696;8.662;2024-03-23T12:30:34;9.10;99.90
11894;DHT22;6006;49.696;8.662;2024-03-23T12:33:01;8.70;99.90
11894;DHT22;6006;49.696;8.662;2024-03-23T12:35:27;8.60;99.90
11894;DHT22;6006;49.696;8.662;2024-03-23T12:37:54;8.70;99.90
11894;DHT22;6006;49.696;8.662;2024-03-23T12:40:19;8.90;99.90
11894;DHT22;6006;49.696;8.662;2024-03-23T12:42:46;9.10;99.90
11894;DHT22;6006;49.696;8.662;2024-03-23T12:45:14;8.90;99.90
11894;DHT22;6006;49.696;8.662;2024-03-23T12:47:41;8.40;99.90
11894;DHT22;6006;49.696;8.662;2024-03-23T12:50:07;8.20;99.90
11894;DHT22;6006;49.696;8.662;2024-03-23T12:52:35;8.20;99.90
11894;DHT22;6006;49.696;8.662;2024-03-23T12:55:01;8.40;99.90
11894;DHT22;6006;49.696;8.662;2024-03-23T12:57:29;8.70;99.90
11894;DHT22;6006;49.696;8.662;2024-03-23T12:59:55;8.70;99.90
11894;DHT22;6006;49.696;8.662;2024-03-23T13:02:23;8.90;99.90
11894;DHT22;6006;49.696;8.662;2024-03-23T13:04:50;9.20;99.90
11894;DHT22;6006;49.696;8.662;2024-03-23T13:07:17;9.00;99.90
11894;DHT22;6006;49.696;8.662;2024-03-23T13:09:43;8.80;99.90
11894;DHT22;6006;49.696;8.662;2024-03-23T13:12:11;8.50;99.90
11894;DHT22;6006;49.696;8.662;2024-03-23T13:14:38;8.50;99.90
11894;DHT22;6006;49.696;8.662;2024-03-23T13:17:05;8.40;99.90
11894;DHT22;6006;49.696;8.662;2024-03-23T13:19:33;8.50;99.90
11894;DHT22;6006;49.696;8.662;2024-03-23T13:21:59;8.50;99.90
11894;DHT22;6006;49.696;8.662;2024-03-23T13:24:27;8.50;99.90
11894;DHT22;6006;49.696;8.662;2024-03-23T13:26:54;8.50;99.90
11894;DHT22;6006;49.696;8.662;2024-03-23T13:29:21;8.80;99.90
11894;DHT22;6006;49.696;8.662;2024-03-23T13:31:48;8.90;99.90
11894;DHT22;6006;49.696;8.662;2024-03-23T13:34:15;8.70;99.90
11894;DHT22;6006;49.696;8.662;2024-03-23T13:36:42;8.80;99.90
11894;DHT22;6006;49.696;8.662;2024-03-23T13:39:10;8.90;99.90
11894;DHT22;6006;49.696;8.662;2024-03-23T13:41:38;8.90;99.90
11894;DHT22;6006;49.696;8.662;2024-03-23T13:44:05;9.00;99.90
11894;DHT22;6006;49.696;8.662;2024-03-23T13:46:31;9.10;99.90
11894;DHT22;6006;49.696;8.662;2024-03-23T13:48:59;8.90;99.90
11894;DHT22;6006;49.696;8.662;2024-03-23T13:51:25;8.90;99.90
11894;DHT22;6006;49.696;8.662;2024-03-23T13:53:55;8.80;99.90
11894;DHT22;6006;49.696;8.662;2024-03-23T13:56:22;8.80;99.90
11894;DHT22;6006;49.696;8.662;2024-03-23T13:58:49;8.80;99.90
11894;DHT22;6006;49.696;8.662;2024-03-23T14:01:16;8.80;99.90
11894;DHT22;6006;49.696;8.662;2024-03-23T14:03:42;8.70;99.90
11894;DHT22;6006;49.696;8.662;2024-03-23T14:06:09;8.70;99.90
11894;DHT22;6006;49.696;8.662;2024-03-23T14:08:36;8.70;99.90
11894;DHT22;6006;49.696;8.662;2024-03-23T14:11:06;8.70;99.90
11894;DHT22;6006;49.696;8.662;2024-03-23T14:13:32;8.60;99.90
11894;DHT22;6006;49.696;8.662;2024-03-23T14:15:59;8.60;99.90
11894;DHT22;6006;49.696;8.662;2024-03-23T14:18:25;8.60;99.90
11894;DHT22;6006;49.696;8.662;2024-03-23T14:20:56;8.60;99.90
11894;DHT22;6006;49.696;8.662;2024-03-23T14:23:24;8.70;99.90
11894;DHT22;6006;49.696;8.662;2024-03-23T14:25:53;8.80;99.90
11894;DHT22;6006;49.696;8.662;2024-03-23T14:28:21;8.90;99.90
11894;DHT22;6006;49.696;8.662;2024-03-23T14:30:48;8.90;99.90
11894;DHT22;6006;49.696;8.662;2024-03-23T14:33:15;8.90;99.90
11894;DHT22;6006;49.696;8.662;2024-03-23T14:35:42;8.90;99.90
11894;DHT22;6006;49.696;8.662;2024-03-23T14:38:08;8.90;99.90
11894;DHT22;6006;49.696;8.662;2024-03-23T14:40:35;8.90;99.90
11894;DHT22;6006;49.696;8.662;2024-03-23T14:43:01;8.80;99.90
11894;DHT22;6006;49.696;8.662;2024-03-23T14:45:29;8.90;99.90
11894;DHT22;6006;49.696;8.662;2024-03-23T14:47:55;8.90;99.90
11894;DHT22;6006;49.696;8.662;2024-03-23T14:50:23;8.80;99.90
11894;DHT22;6006;49.696;8.662;2024-03-23T14:52:50;8.60;99.90
11894;DHT22;6006;49.696;8.662;2024-03-23T14:55:17;8.60;99.90
11894;DHT22;6006;49.696;8.662;2024-03-23T14:57:43;8.50;99.90
11894;DHT22;6006;49.696;8.662;2024-03-23T15:00:10;8.50;99.90
11894;DHT22;6006;49.696;8.662;2024-03-23T15:02:39;8.30;99.90
11894;DHT22;6006;49.696;8.662;2024-03-23T15:05:07;8.20;99.90
11894;DHT22;6006;49.696;8.662;2024-03-23T15:07:35;8.10;99.90
11894;DHT22;6006;49.696;8.662;2024-03-23T15:10:02;8.00;99.90
11894;DHT22;6006;49.696;8.662;2024-03-23T15:12:30;7.80;99.90
11894;DHT22;6006;49.696;8.662;2024-03-23T15:14:58;7.60;99.90
11894;DHT22;6006;49.696;8.662;2024-03-23T15:17:24;7.50;99.90
11894;DHT22;6006;49.696;8.662;2024-03-23T15:19:52;7.50;99.90
11894;DHT22;6006;49.696;8.662;2024-03-23T15:22:19;7.50;99.90
11894;DHT22;6006;49.696;8.662;2024-03-23T15:24:46;7.50;99.90
11894;DHT22;6006;49.696;8.662;2024-03-23T15:27:13;7.50;99.90
11894;DHT22;6006;49.696;8.662;2024-03-23T15:29:39;7.30;99.90
11894;DHT22;6006;49.696;8.662;2024-03-23T15:32:10;7.10;99.90
11894;DHT22;6006;49.696;8.662;2024-03-23T15:34:38;6.60;99.90
11894;DHT22;6006;49.696;8.662;2024-03-23T15:37:06;6.60;99.90
11894;DHT22;6006;49.696;8.662;2024-03-23T15:39:32;7.40;99.90
11894;DHT22;6006;49.696;8.662;2024-03-23T15:41:58;7.80;99.90
11894;DHT22;6006;49.696;8.662;2024-03-23T15:44:25;8.00;99.90
11894;DHT22;6006;49.696;8.662;2024-03-23T15:46:51;7.70;99.90
11894;DHT22;6006;49.696;8.662;2024-03-23T15:49:18;7.50;99.90
11894;DHT22;6006;49.696;8.662;2024-03-23T15:51:45;7.50;99.90
11894;DHT22;6006;49.696;8.662;2024-03-23T15:54:13;7.40;99.90
11894;DHT22;6006;49.696;8.662;2024-03-23T15:56:39;7.20;99.90
11894;DHT22;6006;49.696;8.662;2024-03-23T15:59:06;7.00;99.90
11894;DHT22;6006;49.696;8.662;2024-03-23T16:01:33;7.00;99.90
11894;DHT22;6006;49.696;8.662;2024-03-23T16:04:00;7.00;99.90
11894;DHT22;6006;49.696;8.662;2024-03-23T16:06:26;7.30;99.90
11894;DHT22;6006;49.696;8.662;2024-03-23T16:08:53;7.50;99.90
11894;DHT22;6006;49.696;8.662;2024-03-23T16:11:21;7.70;99.90
11894;DHT22;6006;49.696;8.662;2024-03-23T16:13:47;7.60;99.90
11894;DHT22;6006;49.696;8.662;2024-03-23T16:16:13;7.60;99.90
11894;DHT22;6006;49.696;8.662;2024-03-23T16:18:41;7.80;99.90
11894;DHT22;6006;49.696;8.662;2024-03-23T16:21:09;7.70;99.90
11894;DHT22;6006;49.696;8.662;2024-03-23T16:23:36;7.80;99.90
11894;DHT22;6006;49.696;8.662;2024-03-23T16:26:03;7.50;99.90
11894;DHT22;6006;49.696;8.662;2024-03-23T16:28:33;7.60;99.90
11894;DHT22;6006;49.696;8.662;2024-03-23T16:31:00;7.60;99.90
11894;DHT22;6006;49.696;8.662;2024-03-23T16:33:29;7.40;99.90
11894;DHT22;6006;49.696;8.662;2024-03-23T16:36:00;7.30;99.90
11894;DHT22;6006;49.696;8.662;2024-03-23T16:38:28;7.40;99.90
11894;DHT22;6006;49.696;8.662;2024-03-23T16:40:55;7.30;99.90
11894;DHT22;6006;49.696;8.662;2024-03-23T16:43:22;7.30;99.90
11894;DHT22;6006;49.696;8.662;2024-03-23T16:45:57;7.30;99.90
11894;DHT22;6006;49.696;8.662;2024-03-23T16:48:25;7.30;99.90
11894;DHT22;6006;49.696;8.662;2024-03-23T16:50:52;7.20;99.90
11894;DHT22;6006;49.696;8.662;2024-03-23T16:53:19;7.10;99.90
11894;DHT22;6006;49.696;8.662;2024-03-23T16:55:45;7.00;99.90
11894;DHT22;6006;49.696;8.662;2024-03-23T16:58:12;6.90;99.90